sensor_id;sensor_type;location;lat;lon;timestamp;P1;durP1;ratioP1;P2;durP2;ratioP2
12719;SDS011;6424;48.520;11.228;2024-03-08T00:02:52;17.80;;;12.50;;
12719;SDS011;6424;48.520;11.228;2024-03-08T00:05:37;18.70;;;12.90;;
12719;SDS011;6424;48.520;11.228;2024-03-08T00:08:22;17.73;;;13.03;;
12719;SDS011;6424;48.520;11.228;2024-03-08T00:11:07;20.30;;;13.33;;
12719;SDS011;6424;48.520;11.228;2024-03-08T00:13:52;17.90;;;13.60;;
12719;SDS011;6424;48.520;11.228;2024-03-08T00:16:37;18.70;;;14.13;;
12719;SDS011;6424;48.520;11.228;2024-03-08T00:19:22;17.90;;;12.60;;
12719;SDS011;6424;48.520;11.228;2024-03-08T00:22:06;19.30;;;13.53;;
12719;SDS011;6424;48.520;11.228;2024-03-08T00:24:52;19.70;;;14.23;;
12719;SDS011;6424;48.520;11.228;2024-03-08T00:27:36;17.00;;;12.07;;
12719;SDS011;6424;48.520;11.228;2024-03-08T00:30:22;19.07;;;13.63;;
12719;SDS011;6424;48.520;11.228;2024-03-08T00:33:09;17.93;;;13.63;;
12719;SDS011;6424;48.520;11.228;2024-03-08T00:35:56;19.50;;;13.43;;
12719;SDS011;6424;48.520;11.228;2024-03-08T00:38:41;19.77;;;13.20;;
12719;SDS011;6424;48.520;11.228;2024-03-08T00:41:25;19.27;;;13.70;;
12719;SDS011;6424;48.520;11.228;2024-03-08T00:44:10;20.47;;;13.80;;
12719;SDS011;6424;48.520;11.228;2024-03-08T00:46:54;21.87;;;14.03;;
12719;SDS011;6424;48.520;11.228;2024-03-08T00:49:40;19.70;;;13.63;;
12719;SDS011;6424;48.520;11.228;2024-03-08T00:52:25;19.47;;;12.80;;
12719;SDS011;6424;48.520;11.228;2024-03-08T00:55:10;22.67;;;14.40;;
12719;SDS011;6424;48.520;11.228;2024-03-08T00:57:55;19.50;;;14.07;;
12719;SDS011;6424;48.520;11.228;2024-03-08T01:00:39;20.63;;;14.37;;
12719;SDS011;6424;48.520;11.228;2024-03-08T01:03:24;18.90;;;13.97;;
12719;SDS011;6424;48.520;11.228;2024-03-08T01:06:08;19.57;;;13.97;;
12719;SDS011;6424;48.520;11.228;2024-03-08T01:08:53;19.97;;;14.37;;
12719;SDS011;6424;48.520;11.228;2024-03-08T01:11:37;22.77;;;15.17;;
12719;SDS011;6424;48.520;11.228;2024-03-08T01:14:24;19.90;;;13.60;;
12719;SDS011;6424;48.520;11.228;2024-03-08T01:17:15;22.53;;;13.97;;
12719;SDS011;6424;48.520;11.228;2024-03-08T01:19:59;20.10;;;13.37;;
12719;SDS011;6424;48.520;11.228;2024-03-08T01:22:44;18.33;;;14.17;;
12719;SDS011;6424;48.520;11.228;2024-03-08T01:25:28;21.73;;;14.97;;
12719;SDS011;6424;48.520;11.228;2024-03-08T01:28:12;22.20;;;15.47;;
12719;SDS011;6424;48.520;11.228;2024-03-08T01:30:56;21.30;;;14.37;;
12719;SDS011;6424;48.520;11.228;2024-03-08T01:33:41;19.47;;;14.17;;
12719;SDS011;6424;48.520;11.228;2024-03-08T01:36:25;19.03;;;13.70;;
12719;SDS011;6424;48.520;11.228;2024-03-08T01:39:10;19.47;;;14.87;;
12719;SDS011;6424;48.520;11.228;2024-03-08T01:41:54;21.63;;;14.53;;
12719;SDS011;6424;48.520;11.228;2024-03-08T01:44:39;20.97;;;14.10;;
12719;SDS011;6424;48.520;11.228;2024-03-08T01:47:23;20.63;;;13.87;;
12719;SDS011;6424;48.520;11.228;2024-03-08T01:50:07;21.33;;;14.97;;
12719;SDS011;6424;48.520;11.228;2024-03-08T01:52:52;21.27;;;15.27;;
12719;SDS011;6424;48.520;11.228;2024-03-08T01:55:36;22.80;;;15.40;;
12719;SDS011;6424;48.520;11.228;2024-03-08T01:58:22;22.13;;;15.50;;
12719;SDS011;6424;48.520;11.228;2024-03-08T02:01:07;20.63;;;15.07;;
12719;SDS011;6424;48.520;11.228;2024-03-08T02:03:52;22.70;;;15.60;;
12719;SDS011;6424;48.520;11.228;2024-03-08T02:06:37;20.10;;;15.20;;
12719;SDS011;6424;48.520;11.228;2024-03-08T02:09:22;19.50;;;14.83;;
12719;SDS011;6424;48.520;11.228;2024-03-08T02:12:08;25.03;;;16.63;;
12719;SDS011;6424;48.520;11.228;2024-03-08T02:14:53;19.60;;;14.63;;
12719;SDS011;6424;48.520;11.228;2024-03-08T02:17:38;21.73;;;15.30;;
12719;SDS011;6424;48.520;11.228;2024-03-08T02:20:22;21.83;;;16.13;;
12719;SDS011;6424;48.520;11.228;2024-03-08T02:23:07;22.40;;;16.10;;
12719;SDS011;6424;48.520;11.228;2024-03-08T02:25:52;25.47;;;15.83;;
12719;SDS011;6424;48.520;11.228;2024-03-08T02:28:37;23.43;;;15.83;;
12719;SDS011;6424;48.520;11.228;2024-03-08T02:31:22;22.33;;;16.07;;
12719;SDS011;6424;48.520;11.228;2024-03-08T02:34:06;22.07;;;15.40;;
12719;SDS011;6424;48.520;11.228;2024-03-08T02:36:51;20.37;;;14.67;;
12719;SDS011;6424;48.520;11.228;2024-03-08T02:39:35;21.83;;;16.00;;
12719;SDS011;6424;48.520;11.228;2024-03-08T02:42:19;25.53;;;16.60;;
12719;SDS011;6424;48.520;11.228;2024-03-08T02:45:04;25.17;;;16.33;;
12719;SDS011;6424;48.520;11.228;2024-03-08T02:47:49;25.33;;;16.83;;
12719;SDS011;6424;48.520;11.228;2024-03-08T02:50:34;23.97;;;17.37;;
12719;SDS011;6424;48.520;11.228;2024-03-08T02:53:19;24.27;;;16.53;;
12719;SDS011;6424;48.520;11.228;2024-03-08T02:56:04;24.17;;;16.43;;
12719;SDS011;6424;48.520;11.228;2024-03-08T02:58:52;25.17;;;17.23;;
12719;SDS011;6424;48.520;11.228;2024-03-08T03:01:36;23.60;;;16.37;;
12719;SDS011;6424;48.520;11.228;2024-03-08T03:04:22;25.43;;;17.43;;
12719;SDS011;6424;48.520;11.228;2024-03-08T03:07:06;23.70;;;17.70;;
12719;SDS011;6424;48.520;11.228;2024-03-08T03:09:50;27.87;;;18.17;;
12719;SDS011;6424;48.520;11.228;2024-03-08T03:12:34;27.23;;;17.57;;
12719;SDS011;6424;48.520;11.228;2024-03-08T03:15:18;25.40;;;17.40;;
12719;SDS011;6424;48.520;11.228;2024-03-08T03:18:03;24.33;;;17.23;;
12719;SDS011;6424;48.520;11.228;2024-03-08T03:20:47;26.30;;;17.60;;
12719;SDS011;6424;48.520;11.228;2024-03-08T03:23:32;23.37;;;17.63;;
12719;SDS011;6424;48.520;11.228;2024-03-08T03:26:17;27.37;;;17.63;;
12719;SDS011;6424;48.520;11.228;2024-03-08T03:29:02;26.97;;;17.27;;
12719;SDS011;6424;48.520;11.228;2024-03-08T03:31:47;26.93;;;17.50;;
12719;SDS011;6424;48.520;11.228;2024-03-08T03:34:31;26.00;;;17.57;;
12719;SDS011;6424;48.520;11.228;2024-03-08T03:37:16;27.30;;;17.80;;
12719;SDS011;6424;48.520;11.228;2024-03-08T03:40:01;24.67;;;17.33;;
12719;SDS011;6424;48.520;11.228;2024-03-08T03:42:46;23.87;;;16.40;;
12719;SDS011;6424;48.520;11.228;2024-03-08T03:45:31;27.37;;;18.20;;
12719;SDS011;6424;48.520;11.228;2024-03-08T03:48:18;23.33;;;17.17;;
12719;SDS011;6424;48.520;11.228;2024-03-08T03:51:02;25.23;;;16.90;;
12719;SDS011;6424;48.520;11.228;2024-03-08T03:53:47;26.43;;;17.33;;
12719;SDS011;6424;48.520;11.228;2024-03-08T03:56:32;27.40;;;18.13;;
12719;SDS011;6424;48.520;11.228;2024-03-08T03:59:16;25.07;;;17.53;;
12719;SDS011;6424;48.520;11.228;2024-03-08T04:02:01;26.03;;;16.77;;
12719;SDS011;6424;48.520;11.228;2024-03-08T04:04:47;28.23;;;17.57;;
12719;SDS011;6424;48.520;11.228;2024-03-08T04:07:31;24.63;;;17.30;;
12719;SDS011;6424;48.520;11.228;2024-03-08T04:10:16;24.87;;;17.00;;
12719;SDS011;6424;48.520;11.228;2024-03-08T04:13:01;24.73;;;17.67;;
12719;SDS011;6424;48.520;11.228;2024-03-08T04:15:46;26.57;;;18.17;;
12719;SDS011;6424;48.520;11.228;2024-03-08T04:18:32;29.20;;;17.63;;
12719;SDS011;6424;48.520;11.228;2024-03-08T04:21:19;27.07;;;18.40;;
12719;SDS011;6424;48.520;11.228;2024-03-08T04:24:03;26.00;;;17.93;;
12719;SDS011;6424;48.520;11.228;2024-03-08T04:26:49;28.80;;;18.97;;
12719;SDS011;6424;48.520;11.228;2024-03-08T04:29:33;27.53;;;18.87;;
12719;SDS011;6424;48.520;11.228;2024-03-08T04:32:18;27.33;;;18.73;;
12719;SDS011;6424;48.520;11.228;2024-03-08T04:35:02;29.47;;;18.87;;
12719;SDS011;6424;48.520;11.228;2024-03-08T04:37:47;29.33;;;19.77;;
12719;SDS011;6424;48.520;11.228;2024-03-08T04:40:31;29.00;;;19.43;;
12719;SDS011;6424;48.520;11.228;2024-03-08T04:43:16;29.47;;;18.87;;
12719;SDS011;6424;48.520;11.228;2024-03-08T04:46:02;27.00;;;18.63;;
12719;SDS011;6424;48.520;11.228;2024-03-08T04:48:47;27.50;;;18.40;;
12719;SDS011;6424;48.520;11.228;2024-03-08T04:51:31;30.77;;;19.83;;
12719;SDS011;6424;48.520;11.228;2024-03-08T04:54:16;31.10;;;19.97;;
12719;SDS011;6424;48.520;11.228;2024-03-08T04:57:01;31.30;;;19.77;;
12719;SDS011;6424;48.520;11.228;2024-03-08T04:59:45;33.47;;;20.63;;
12719;SDS011;6424;48.520;11.228;2024-03-08T05:02:29;30.77;;;18.93;;
12719;SDS011;6424;48.520;11.228;2024-03-08T05:05:14;32.13;;;19.90;;
12719;SDS011;6424;48.520;11.228;2024-03-08T05:07:59;32.33;;;20.80;;
12719;SDS011;6424;48.520;11.228;2024-03-08T05:10:45;33.13;;;20.30;;
12719;SDS011;6424;48.520;11.228;2024-03-08T05:13:30;33.77;;;21.40;;
12719;SDS011;6424;48.520;11.228;2024-03-08T05:16:15;31.70;;;20.60;;
12719;SDS011;6424;48.520;11.228;2024-03-08T05:18:59;32.10;;;21.07;;
12719;SDS011;6424;48.520;11.228;2024-03-08T05:21:47;31.33;;;20.80;;
12719;SDS011;6424;48.520;11.228;2024-03-08T05:24:32;30.90;;;19.87;;
12719;SDS011;6424;48.520;11.228;2024-03-08T05:27:17;33.93;;;21.93;;
12719;SDS011;6424;48.520;11.228;2024-03-08T05:30:02;31.77;;;20.33;;
12719;SDS011;6424;48.520;11.228;2024-03-08T05:32:47;34.30;;;21.87;;
12719;SDS011;6424;48.520;11.228;2024-03-08T05:35:31;33.37;;;21.40;;
12719;SDS011;6424;48.520;11.228;2024-03-08T05:38:16;35.00;;;22.07;;
12719;SDS011;6424;48.520;11.228;2024-03-08T05:41:01;35.37;;;22.40;;
12719;SDS011;6424;48.520;11.228;2024-03-08T05:43:45;36.00;;;21.63;;
12719;SDS011;6424;48.520;11.228;2024-03-08T05:46:29;31.70;;;21.23;;
12719;SDS011;6424;48.520;11.228;2024-03-08T05:49:13;32.53;;;20.97;;
12719;SDS011;6424;48.520;11.228;2024-03-08T05:51:58;33.23;;;21.43;;
12719;SDS011;6424;48.520;11.228;2024-03-08T05:54:43;36.23;;;21.50;;
12719;SDS011;6424;48.520;11.228;2024-03-08T05:57:29;35.83;;;22.43;;
12719;SDS011;6424;48.520;11.228;2024-03-08T06:00:13;40.50;;;23.83;;
12719;SDS011;6424;48.520;11.228;2024-03-08T06:02:59;35.97;;;22.97;;
12719;SDS011;6424;48.520;11.228;2024-03-08T06:05:43;41.93;;;23.20;;
12719;SDS011;6424;48.520;11.228;2024-03-08T06:08:27;35.33;;;21.83;;
12719;SDS011;6424;48.520;11.228;2024-03-08T06:11:13;39.10;;;23.67;;
12719;SDS011;6424;48.520;11.228;2024-03-08T06:13:58;41.27;;;23.77;;
12719;SDS011;6424;48.520;11.228;2024-03-08T06:16:46;33.73;;;22.07;;
12719;SDS011;6424;48.520;11.228;2024-03-08T06:19:34;39.17;;;22.90;;
12719;SDS011;6424;48.520;11.228;2024-03-08T06:22:20;35.13;;;21.87;;
12719;SDS011;6424;48.520;11.228;2024-03-08T06:25:04;34.27;;;21.87;;
12719;SDS011;6424;48.520;11.228;2024-03-08T06:27:49;42.93;;;23.77;;
12719;SDS011;6424;48.520;11.228;2024-03-08T06:30:33;35.67;;;22.33;;
12719;SDS011;6424;48.520;11.228;2024-03-08T06:33:18;42.83;;;24.23;;
12719;SDS011;6424;48.520;11.228;2024-03-08T06:36:02;39.17;;;23.10;;
12719;SDS011;6424;48.520;11.228;2024-03-08T06:38:48;39.37;;;21.87;;
12719;SDS011;6424;48.520;11.228;2024-03-08T06:41:32;40.53;;;23.93;;
12719;SDS011;6424;48.520;11.228;2024-03-08T06:44:16;38.30;;;22.67;;
12719;SDS011;6424;48.520;11.228;2024-03-08T06:47:01;37.50;;;23.20;;
12719;SDS011;6424;48.520;11.228;2024-03-08T06:49:46;36.13;;;23.40;;
12719;SDS011;6424;48.520;11.228;2024-03-08T06:52:30;37.83;;;23.90;;
12719;SDS011;6424;48.520;11.228;2024-03-08T06:55:15;37.37;;;22.77;;
12719;SDS011;6424;48.520;11.228;2024-03-08T06:58:01;37.23;;;22.43;;
12719;SDS011;6424;48.520;11.228;2024-03-08T07:00:46;38.63;;;22.93;;
12719;SDS011;6424;48.520;11.228;2024-03-08T07:03:30;33.83;;;22.27;;
12719;SDS011;6424;48.520;11.228;2024-03-08T07:06:15;37.60;;;23.73;;
12719;SDS011;6424;48.520;11.228;2024-03-08T07:09:02;34.53;;;22.27;;
12719;SDS011;6424;48.520;11.228;2024-03-08T07:11:47;33.60;;;22.53;;
12719;SDS011;6424;48.520;11.228;2024-03-08T07:14:31;41.77;;;23.40;;
12719;SDS011;6424;48.520;11.228;2024-03-08T07:17:15;38.60;;;23.97;;
12719;SDS011;6424;48.520;11.228;2024-03-08T07:20:00;36.20;;;23.53;;
12719;SDS011;6424;48.520;11.228;2024-03-08T07:22:51;37.40;;;23.60;;
12719;SDS011;6424;48.520;11.228;2024-03-08T07:25:35;38.50;;;23.47;;
12719;SDS011;6424;48.520;11.228;2024-03-08T07:28:22;37.33;;;23.00;;
12719;SDS011;6424;48.520;11.228;2024-03-08T07:31:06;39.83;;;25.03;;
12719;SDS011;6424;48.520;11.228;2024-03-08T07:34:07;36.90;;;22.83;;
12719;SDS011;6424;48.520;11.228;2024-03-08T07:36:51;32.97;;;20.40;;
12719;SDS011;6424;48.520;11.228;2024-03-08T07:39:35;36.37;;;22.87;;
12719;SDS011;6424;48.520;11.228;2024-03-08T07:42:21;35.83;;;23.63;;
12719;SDS011;6424;48.520;11.228;2024-03-08T07:45:06;41.60;;;24.07;;
12719;SDS011;6424;48.520;11.228;2024-03-08T07:47:52;33.30;;;22.33;;
12719;SDS011;6424;48.520;11.228;2024-03-08T07:50:37;35.43;;;22.13;;
12719;SDS011;6424;48.520;11.228;2024-03-08T07:53:23;35.13;;;23.00;;
12719;SDS011;6424;48.520;11.228;2024-03-08T07:56:10;34.40;;;21.23;;
12719;SDS011;6424;48.520;11.228;2024-03-08T07:58:56;37.67;;;22.67;;
12719;SDS011;6424;48.520;11.228;2024-03-08T08:01:41;34.97;;;22.77;;
12719;SDS011;6424;48.520;11.228;2024-03-08T08:04:25;35.30;;;21.80;;
12719;SDS011;6424;48.520;11.228;2024-03-08T08:07:11;33.60;;;21.67;;
12719;SDS011;6424;48.520;11.228;2024-03-08T08:09:55;32.57;;;21.40;;
12719;SDS011;6424;48.520;11.228;2024-03-08T08:12:39;33.27;;;21.33;;
12719;SDS011;6424;48.520;11.228;2024-03-08T08:15:25;34.40;;;22.23;;
12719;SDS011;6424;48.520;11.228;2024-03-08T08:18:11;33.47;;;21.73;;
12719;SDS011;6424;48.520;11.228;2024-03-08T08:20:58;36.20;;;22.77;;
12719;SDS011;6424;48.520;11.228;2024-03-08T08:23:43;32.50;;;21.30;;
12719;SDS011;6424;48.520;11.228;2024-03-08T08:26:27;33.47;;;22.33;;
12719;SDS011;6424;48.520;11.228;2024-03-08T08:29:12;34.97;;;22.83;;
12719;SDS011;6424;48.520;11.228;2024-03-08T08:31:59;34.13;;;22.07;;
12719;SDS011;6424;48.520;11.228;2024-03-08T08:34:44;31.63;;;22.10;;
12719;SDS011;6424;48.520;11.228;2024-03-08T08:37:28;32.47;;;22.33;;
12719;SDS011;6424;48.520;11.228;2024-03-08T08:40:12;33.73;;;21.87;;
12719;SDS011;6424;48.520;11.228;2024-03-08T08:43:01;31.73;;;21.10;;
12719;SDS011;6424;48.520;11.228;2024-03-08T08:45:49;31.73;;;22.20;;
12719;SDS011;6424;48.520;11.228;2024-03-08T08:48:37;31.57;;;22.63;;
12719;SDS011;6424;48.520;11.228;2024-03-08T08:51:21;31.00;;;20.70;;
12719;SDS011;6424;48.520;11.228;2024-03-08T08:54:06;33.53;;;21.67;;
12719;SDS011;6424;48.520;11.228;2024-03-08T08:56:51;30.17;;;21.27;;
12719;SDS011;6424;48.520;11.228;2024-03-08T08:59:36;33.53;;;21.53;;
12719;SDS011;6424;48.520;11.228;2024-03-08T09:02:23;32.40;;;20.80;;
12719;SDS011;6424;48.520;11.228;2024-03-08T09:05:07;31.33;;;20.63;;
12719;SDS011;6424;48.520;11.228;2024-03-08T09:07:52;28.33;;;20.43;;
12719;SDS011;6424;48.520;11.228;2024-03-08T09:10:37;30.53;;;21.33;;
12719;SDS011;6424;48.520;11.228;2024-03-08T09:13:22;31.23;;;21.23;;
12719;SDS011;6424;48.520;11.228;2024-03-08T09:16:06;32.17;;;21.17;;
12719;SDS011;6424;48.520;11.228;2024-03-08T09:18:51;32.90;;;21.17;;
12719;SDS011;6424;48.520;11.228;2024-03-08T09:21:35;30.97;;;21.10;;
12719;SDS011;6424;48.520;11.228;2024-03-08T09:24:20;29.97;;;21.00;;
12719;SDS011;6424;48.520;11.228;2024-03-08T09:27:04;28.37;;;20.27;;
12719;SDS011;6424;48.520;11.228;2024-03-08T09:29:48;32.67;;;21.20;;
12719;SDS011;6424;48.520;11.228;2024-03-08T09:32:33;30.53;;;20.33;;
12719;SDS011;6424;48.520;11.228;2024-03-08T09:35:18;29.03;;;19.50;;
12719;SDS011;6424;48.520;11.228;2024-03-08T09:38:03;27.90;;;19.17;;
12719;SDS011;6424;48.520;11.228;2024-03-08T09:40:48;27.30;;;19.23;;
12719;SDS011;6424;48.520;11.228;2024-03-08T09:43:32;29.87;;;19.03;;
12719;SDS011;6424;48.520;11.228;2024-03-08T09:46:18;28.10;;;19.00;;
12719;SDS011;6424;48.520;11.228;2024-03-08T09:49:03;29.03;;;18.80;;
12719;SDS011;6424;48.520;11.228;2024-03-08T09:51:49;26.17;;;19.37;;
12719;SDS011;6424;48.520;11.228;2024-03-08T09:54:35;24.23;;;17.97;;
12719;SDS011;6424;48.520;11.228;2024-03-08T09:57:19;26.43;;;18.27;;
12719;SDS011;6424;48.520;11.228;2024-03-08T10:00:05;24.17;;;16.03;;
12719;SDS011;6424;48.520;11.228;2024-03-08T10:03:07;23.97;;;17.27;;
12719;SDS011;6424;48.520;11.228;2024-03-08T10:05:52;26.27;;;18.20;;
12719;SDS011;6424;48.520;11.228;2024-03-08T10:08:43;26.47;;;17.37;;
12719;SDS011;6424;48.520;11.228;2024-03-08T10:11:28;25.53;;;18.57;;
12719;SDS011;6424;48.520;11.228;2024-03-08T10:14:14;23.80;;;16.60;;
12719;SDS011;6424;48.520;11.228;2024-03-08T10:17:00;25.80;;;17.27;;
12719;SDS011;6424;48.520;11.228;2024-03-08T10:19:51;24.13;;;18.43;;
12719;SDS011;6424;48.520;11.228;2024-03-08T10:22:36;22.23;;;17.00;;
12719;SDS011;6424;48.520;11.228;2024-03-08T10:25:21;20.03;;;16.43;;
12719;SDS011;6424;48.520;11.228;2024-03-08T10:28:08;21.23;;;15.93;;
12719;SDS011;6424;48.520;11.228;2024-03-08T10:30:52;28.03;;;17.67;;
12719;SDS011;6424;48.520;11.228;2024-03-08T10:33:38;24.07;;;16.97;;
12719;SDS011;6424;48.520;11.228;2024-03-08T10:36:23;22.77;;;16.43;;
12719;SDS011;6424;48.520;11.228;2024-03-08T10:39:12;22.50;;;15.93;;
12719;SDS011;6424;48.520;11.228;2024-03-08T10:42:08;22.20;;;16.63;;
12719;SDS011;6424;48.520;11.228;2024-03-08T10:45:05;24.40;;;18.00;;
12719;SDS011;6424;48.520;11.228;2024-03-08T10:50:54;22.80;;;18.10;;
12719;SDS011;6424;48.520;11.228;2024-03-08T10:53:40;20.77;;;15.80;;
12719;SDS011;6424;48.520;11.228;2024-03-08T10:56:25;23.07;;;16.03;;
12719;SDS011;6424;48.520;11.228;2024-03-08T10:59:12;22.67;;;15.97;;
12719;SDS011;6424;48.520;11.228;2024-03-08T11:01:57;21.07;;;15.10;;
12719;SDS011;6424;48.520;11.228;2024-03-08T11:04:48;22.07;;;16.40;;
12719;SDS011;6424;48.520;11.228;2024-03-08T11:07:34;20.80;;;15.73;;
12719;SDS011;6424;48.520;11.228;2024-03-08T11:10:19;20.27;;;15.20;;
12719;SDS011;6424;48.520;11.228;2024-03-08T11:13:03;20.27;;;14.53;;
12719;SDS011;6424;48.520;11.228;2024-03-08T11:15:48;19.03;;;14.40;;
12719;SDS011;6424;48.520;11.228;2024-03-08T11:18:33;20.17;;;14.23;;
12719;SDS011;6424;48.520;11.228;2024-03-08T11:21:21;21.93;;;15.07;;
12719;SDS011;6424;48.520;11.228;2024-03-08T11:24:10;21.10;;;14.87;;
12719;SDS011;6424;48.520;11.228;2024-03-08T11:26:59;18.67;;;14.20;;
12719;SDS011;6424;48.520;11.228;2024-03-08T11:30:01;22.07;;;14.87;;
12719;SDS011;6424;48.520;11.228;2024-03-08T11:32:56;18.60;;;14.50;;
12719;SDS011;6424;48.520;11.228;2024-03-08T11:35:47;17.83;;;13.80;;
12719;SDS011;6424;48.520;11.228;2024-03-08T11:38:32;19.50;;;13.67;;
12719;SDS011;6424;48.520;11.228;2024-03-08T11:41:17;17.70;;;13.47;;
12719;SDS011;6424;48.520;11.228;2024-03-08T11:44:04;21.17;;;14.60;;
12719;SDS011;6424;48.520;11.228;2024-03-08T11:46:49;21.37;;;14.67;;
12719;SDS011;6424;48.520;11.228;2024-03-08T11:49:33;17.70;;;13.37;;
12719;SDS011;6424;48.520;11.228;2024-03-08T11:52:18;19.40;;;13.50;;
12719;SDS011;6424;48.520;11.228;2024-03-08T11:55:03;17.53;;;13.27;;
12719;SDS011;6424;48.520;11.228;2024-03-08T11:57:49;16.10;;;13.00;;
12719;SDS011;6424;48.520;11.228;2024-03-08T12:00:33;16.30;;;12.03;;
12719;SDS011;6424;48.520;11.228;2024-03-08T12:03:21;16.50;;;12.67;;
12719;SDS011;6424;48.520;11.228;2024-03-08T12:06:06;17.73;;;13.13;;
12719;SDS011;6424;48.520;11.228;2024-03-08T12:08:52;16.20;;;12.63;;
12719;SDS011;6424;48.520;11.228;2024-03-08T12:11:37;17.20;;;13.13;;
12719;SDS011;6424;48.520;11.228;2024-03-08T12:14:23;17.00;;;12.93;;
12719;SDS011;6424;48.520;11.228;2024-03-08T12:17:08;16.90;;;12.77;;
12719;SDS011;6424;48.520;11.228;2024-03-08T12:19:54;16.83;;;12.23;;
12719;SDS011;6424;48.520;11.228;2024-03-08T12:22:44;15.40;;;12.53;;
12719;SDS011;6424;48.520;11.228;2024-03-08T12:25:32;13.80;;;11.10;;
12719;SDS011;6424;48.520;11.228;2024-03-08T12:28:20;13.50;;;11.40;;
12719;SDS011;6424;48.520;11.228;2024-03-08T12:31:09;16.57;;;12.20;;
12719;SDS011;6424;48.520;11.228;2024-03-08T12:33:55;18.17;;;11.80;;
12719;SDS011;6424;48.520;11.228;2024-03-08T12:36:46;15.67;;;12.40;;
12719;SDS011;6424;48.520;11.228;2024-03-08T12:39:32;15.47;;;12.33;;
12719;SDS011;6424;48.520;11.228;2024-03-08T12:42:17;15.53;;;11.90;;
12719;SDS011;6424;48.520;11.228;2024-03-08T12:45:03;15.23;;;11.40;;
12719;SDS011;6424;48.520;11.228;2024-03-08T12:47:53;15.03;;;11.47;;
12719;SDS011;6424;48.520;11.228;2024-03-08T12:50:38;16.37;;;12.63;;
12719;SDS011;6424;48.520;11.228;2024-03-08T12:53:22;14.60;;;11.90;;
12719;SDS011;6424;48.520;11.228;2024-03-08T12:56:08;15.03;;;11.63;;
12719;SDS011;6424;48.520;11.228;2024-03-08T12:58:53;13.83;;;10.83;;
12719;SDS011;6424;48.520;11.228;2024-03-08T13:01:38;15.73;;;11.60;;
12719;SDS011;6424;48.520;11.228;2024-03-08T13:04:22;13.37;;;11.27;;
12719;SDS011;6424;48.520;11.228;2024-03-08T13:07:06;16.20;;;12.63;;
12719;SDS011;6424;48.520;11.228;2024-03-08T13:09:52;18.53;;;13.57;;
12719;SDS011;6424;48.520;11.228;2024-03-08T13:12:38;15.50;;;11.37;;
12719;SDS011;6424;48.520;11.228;2024-03-08T13:15:22;15.33;;;12.43;;
12719;SDS011;6424;48.520;11.228;2024-03-08T13:18:07;13.30;;;10.90;;
12719;SDS011;6424;48.520;11.228;2024-03-08T13:20:53;13.23;;;10.47;;
12719;SDS011;6424;48.520;11.228;2024-03-08T13:23:38;12.73;;;10.23;;
12719;SDS011;6424;48.520;11.228;2024-03-08T13:26:25;11.50;;;9.53;;
12719;SDS011;6424;48.520;11.228;2024-03-08T13:29:14;10.97;;;9.07;;
12719;SDS011;6424;48.520;11.228;2024-03-08T13:31:58;14.83;;;11.13;;
12719;SDS011;6424;48.520;11.228;2024-03-08T13:34:45;10.93;;;9.30;;
12719;SDS011;6424;48.520;11.228;2024-03-08T13:37:31;13.07;;;10.67;;
12719;SDS011;6424;48.520;11.228;2024-03-08T13:40:17;13.73;;;10.53;;
12719;SDS011;6424;48.520;11.228;2024-03-08T13:43:04;12.57;;;10.50;;
12719;SDS011;6424;48.520;11.228;2024-03-08T13:45:48;12.83;;;10.73;;
12719;SDS011;6424;48.520;11.228;2024-03-08T13:48:34;13.73;;;10.63;;
12719;SDS011;6424;48.520;11.228;2024-03-08T13:51:18;13.07;;;10.47;;
12719;SDS011;6424;48.520;11.228;2024-03-08T13:54:03;12.53;;;10.37;;
12719;SDS011;6424;48.520;11.228;2024-03-08T13:56:50;13.13;;;10.30;;
12719;SDS011;6424;48.520;11.228;2024-03-08T13:59:38;13.50;;;10.50;;
12719;SDS011;6424;48.520;11.228;2024-03-08T14:02:23;14.87;;;11.53;;
12719;SDS011;6424;48.520;11.228;2024-03-08T14:05:11;12.90;;;10.23;;
12719;SDS011;6424;48.520;11.228;2024-03-08T14:07:57;12.57;;;10.30;;
12719;SDS011;6424;48.520;11.228;2024-03-08T14:10:44;12.43;;;10.43;;
12719;SDS011;6424;48.520;11.228;2024-03-08T14:13:30;11.60;;;9.53;;
12719;SDS011;6424;48.520;11.228;2024-03-08T14:16:14;10.87;;;9.43;;
12719;SDS011;6424;48.520;11.228;2024-03-08T14:18:59;11.80;;;9.37;;
12719;SDS011;6424;48.520;11.228;2024-03-08T14:21:49;13.00;;;8.90;;
12719;SDS011;6424;48.520;11.228;2024-03-08T14:24:36;11.13;;;9.60;;
12719;SDS011;6424;48.520;11.228;2024-03-08T14:27:20;13.27;;;10.20;;
12719;SDS011;6424;48.520;11.228;2024-03-08T14:30:06;12.37;;;10.13;;
12719;SDS011;6424;48.520;11.228;2024-03-08T14:32:54;12.00;;;9.67;;
12719;SDS011;6424;48.520;11.228;2024-03-08T14:35:40;11.60;;;9.40;;
12719;SDS011;6424;48.520;11.228;2024-03-08T14:38:25;11.30;;;9.17;;
12719;SDS011;6424;48.520;11.228;2024-03-08T14:41:11;10.97;;;8.47;;
12719;SDS011;6424;48.520;11.228;2024-03-08T14:43:55;10.60;;;8.70;;
12719;SDS011;6424;48.520;11.228;2024-03-08T14:46:40;12.43;;;8.10;;
12719;SDS011;6424;48.520;11.228;2024-03-08T14:49:26;8.53;;;7.63;;
12719;SDS011;6424;48.520;11.228;2024-03-08T14:52:13;10.13;;;7.23;;
12719;SDS011;6424;48.520;11.228;2024-03-08T14:55:12;8.50;;;7.00;;
12719;SDS011;6424;48.520;11.228;2024-03-08T14:57:57;9.23;;;6.40;;
12719;SDS011;6424;48.520;11.228;2024-03-08T15:00:42;9.80;;;6.53;;
12719;SDS011;6424;48.520;11.228;2024-03-08T15:03:27;8.10;;;6.63;;
12719;SDS011;6424;48.520;11.228;2024-03-08T15:06:12;11.17;;;6.57;;
12719;SDS011;6424;48.520;11.228;2024-03-08T15:08:57;10.53;;;7.10;;
12719;SDS011;6424;48.520;11.228;2024-03-08T15:11:44;8.70;;;7.30;;
12719;SDS011;6424;48.520;11.228;2024-03-08T15:14:29;7.90;;;6.23;;
12719;SDS011;6424;48.520;11.228;2024-03-08T15:17:14;12.87;;;8.83;;
12719;SDS011;6424;48.520;11.228;2024-03-08T15:20:04;10.43;;;7.80;;
12719;SDS011;6424;48.520;11.228;2024-03-08T15:23:00;8.10;;;5.80;;
12719;SDS011;6424;48.520;11.228;2024-03-08T15:25:44;8.17;;;6.57;;
12719;SDS011;6424;48.520;11.228;2024-03-08T15:28:33;8.20;;;6.47;;
12719;SDS011;6424;48.520;11.228;2024-03-08T15:31:21;7.57;;;5.97;;
12719;SDS011;6424;48.520;11.228;2024-03-08T15:34:08;6.50;;;5.67;;
12719;SDS011;6424;48.520;11.228;2024-03-08T15:36:54;6.53;;;5.50;;
12719;SDS011;6424;48.520;11.228;2024-03-08T15:39:42;7.13;;;5.37;;
12719;SDS011;6424;48.520;11.228;2024-03-08T15:42:27;6.40;;;5.67;;
12719;SDS011;6424;48.520;11.228;2024-03-08T15:45:13;7.00;;;5.70;;
12719;SDS011;6424;48.520;11.228;2024-03-08T15:47:57;7.57;;;5.40;;
12719;SDS011;6424;48.520;11.228;2024-03-08T15:50:41;9.50;;;6.10;;
12719;SDS011;6424;48.520;11.228;2024-03-08T15:53:26;11.00;;;6.40;;
12719;SDS011;6424;48.520;11.228;2024-03-08T15:56:11;7.50;;;6.23;;
12719;SDS011;6424;48.520;11.228;2024-03-08T15:58:55;7.10;;;5.77;;
12719;SDS011;6424;48.520;11.228;2024-03-08T16:01:39;7.80;;;5.67;;
12719;SDS011;6424;48.520;11.228;2024-03-08T16:04:23;6.67;;;5.40;;
12719;SDS011;6424;48.520;11.228;2024-03-08T16:07:08;7.70;;;5.60;;
12719;SDS011;6424;48.520;11.228;2024-03-08T16:09:56;8.10;;;7.03;;
12719;SDS011;6424;48.520;11.228;2024-03-08T16:12:40;8.10;;;6.13;;
12719;SDS011;6424;48.520;11.228;2024-03-08T16:15:24;7.00;;;5.53;;